createdAt,value
2023-10-16T00:02:44.582Z,7.75
2023-10-16T00:05:46.655Z,8.00
2023-10-16T00:08:49.532Z,5.97
2023-10-16T00:11:52.435Z,9.73
2023-10-16T00:14:54.425Z,7.20
2023-10-16T00:17:58.485Z,6.53
2023-10-16T00:21:01.378Z,6.53
2023-10-16T00:24:08.402Z,6.38
2023-10-16T00:27:10.810Z,7.97
2023-10-16T00:30:13.076Z,7.65
2023-10-16T00:33:15.532Z,6.22
2023-10-16T00:36:17.647Z,6.97
2023-10-16T00:39:21.628Z,7.82
2023-10-16T00:42:24.966Z,6.30
2023-10-16T00:45:27.507Z,12.32
2023-10-16T00:48:29.943Z,7.97
2023-10-16T00:51:40.734Z,7.82
2023-10-16T00:54:43.938Z,7.93
2023-10-16T00:57:46.639Z,7.03
2023-10-16T01:00:50.124Z,6.90
2023-10-16T01:03:55.171Z,5.57
2023-10-16T01:06:58.418Z,6.47
2023-10-16T01:10:01.021Z,7.00
2023-10-16T01:13:09.120Z,6.77
2023-10-16T01:16:11.325Z,5.60
2023-10-16T01:19:15.424Z,8.60
2023-10-16T01:22:17.536Z,6.47
2023-10-16T01:25:19.858Z,9.95
2023-10-16T01:28:21.852Z,5.93
2023-10-16T01:31:25.222Z,9.63
2023-10-16T01:34:32.808Z,5.75
2023-10-16T01:37:34.836Z,5.05
2023-10-16T01:40:38.737Z,8.15
2023-10-16T01:43:41.212Z,6.13
2023-10-16T01:46:46.014Z,6.20
2023-10-16T01:49:51.480Z,8.40
2023-10-16T01:52:56.034Z,6.70
2023-10-16T01:55:58.079Z,9.13
2023-10-16T01:59:00.275Z,5.93
2023-10-16T02:02:02.514Z,6.88
2023-10-16T02:05:05.343Z,8.23
2023-10-16T02:08:08.401Z,8.48
2023-10-16T02:11:13.967Z,7.40
2023-10-16T02:14:16.046Z,4.97
2023-10-16T02:17:22.779Z,6.30
2023-10-16T02:20:28.227Z,4.72
2023-10-16T02:23:32.313Z,8.57
2023-10-16T02:26:46.248Z,5.40
2023-10-16T02:29:50.729Z,7.60
2023-10-16T02:33:00.413Z,5.97
2023-10-16T02:36:03.818Z,5.35
2023-10-16T02:39:09.449Z,8.07
2023-10-16T02:42:13.335Z,5.72
2023-10-16T02:45:25.896Z,5.87
2023-10-16T02:48:28.771Z,6.85
2023-10-16T02:51:30.827Z,9.85
2023-10-16T02:54:32.873Z,6.88
2023-10-16T02:57:34.963Z,5.22
2023-10-16T03:00:39.135Z,4.90
2023-10-16T03:03:44.551Z,7.50
2023-10-16T03:06:49.542Z,7.97
2023-10-16T03:09:52.580Z,6.90
2023-10-16T03:12:56.712Z,5.45
2023-10-16T03:16:06.994Z,117.00
2023-10-16T03:19:11.778Z,13.43
2023-10-16T03:22:13.947Z,10.80
2023-10-16T03:25:36.293Z,5.22
2023-10-16T03:28:38.315Z,7.22
2023-10-16T03:31:41.436Z,5.70
2023-10-16T03:34:43.661Z,6.50
2023-10-16T03:37:45.631Z,8.30
2023-10-16T03:40:52.268Z,12.80
2023-10-16T03:44:13.367Z,10.70
2023-10-16T03:47:15.762Z,17.93
2023-10-16T03:50:24.536Z,10.90
2023-10-16T03:53:26.812Z,7.18
2023-10-16T03:56:31.361Z,6.95
2023-10-16T03:59:34.156Z,6.63
2023-10-16T04:02:36.428Z,7.20
2023-10-16T04:05:46.784Z,4.90
2023-10-16T04:08:52.930Z,5.57
2023-10-16T04:11:55.647Z,5.50
2023-10-16T04:15:05.244Z,6.72
2023-10-16T04:18:10.915Z,6.30
2023-10-16T04:21:15.910Z,5.45
2023-10-16T04:24:30.392Z,6.55
2023-10-16T04:27:35.837Z,11.38
2023-10-16T04:30:41.124Z,6.75
2023-10-16T04:34:11.906Z,8.63
2023-10-16T04:37:28.931Z,7.45
2023-10-16T04:40:49.341Z,7.63
2023-10-16T04:44:06.349Z,6.32
2023-10-16T04:47:08.455Z,6.45
2023-10-16T04:50:15.528Z,5.77
2023-10-16T04:53:23.277Z,14.63
2023-10-16T04:56:44.928Z,7.85
2023-10-16T05:00:13.599Z,9.27
2023-10-16T05:03:25.626Z,11.98
2023-10-16T05:06:36.848Z,12.73
2023-10-16T05:10:10.643Z,12.05
2023-10-16T05:13:25.539Z,11.50
2023-10-16T05:16:37.283Z,12.32
2023-10-16T05:19:48.001Z,13.63
2023-10-16T05:22:50.248Z,14.20
2023-10-16T05:26:10.659Z,10.68
2023-10-16T05:29:39.154Z,10.00
2023-10-16T05:33:13.714Z,15.38
2023-10-16T05:36:34.113Z,13.18
2023-10-16T05:39:54.633Z,18.20
2023-10-16T05:43:15.069Z,12.45
2023-10-16T05:46:35.588Z,19.02
2023-10-16T05:49:55.879Z,8.52
2023-10-16T05:53:16.217Z,10.52
2023-10-16T05:56:36.916Z,8.33
2023-10-16T05:59:57.517Z,9.52
2023-10-16T06:03:18.016Z,10.88
2023-10-16T06:06:38.624Z,10.85
2023-10-16T06:13:19.893Z,5.70
2023-10-16T06:16:22.356Z,7.07
2023-10-16T06:19:24.741Z,5.18
2023-10-16T06:22:26.897Z,5.25
2023-10-16T06:25:34.474Z,5.60
2023-10-16T06:28:36.947Z,4.90
2023-10-16T06:31:50.611Z,6.85
2023-10-16T06:34:59.816Z,8.07
2023-10-16T06:38:02.319Z,7.22
2023-10-16T06:41:04.402Z,6.38
2023-10-16T06:44:08.480Z,5.23
2023-10-16T06:47:13.687Z,6.32
2023-10-16T06:50:25.121Z,7.68
2023-10-16T06:53:27.211Z,5.25
2023-10-16T06:56:32.407Z,6.18
2023-10-16T06:59:34.549Z,6.30
2023-10-16T07:02:38.223Z,42.40
2023-10-16T07:05:49.343Z,8.05
2023-10-16T07:08:54.215Z,5.28
2023-10-16T07:11:56.300Z,6.80
2023-10-16T07:15:02.264Z,7.33
2023-10-16T07:18:06.175Z,7.07
2023-10-16T07:21:08.754Z,7.13
2023-10-16T07:24:10.844Z,4.72
2023-10-16T07:27:15.713Z,7.35
2023-10-16T07:30:23.633Z,6.50
2023-10-16T07:33:25.930Z,5.50
2023-10-16T07:36:28.085Z,5.05
2023-10-16T07:39:30.220Z,4.90
2023-10-16T07:42:32.417Z,6.10
2023-10-16T07:45:36.543Z,6.00
2023-10-16T07:48:38.847Z,7.38
2023-10-16T07:51:47.080Z,7.70
2023-10-16T07:54:49.565Z,9.73
2023-10-16T07:57:52.668Z,6.72
2023-10-16T08:01:17.868Z,4.87
2023-10-16T08:04:23.420Z,5.32
2023-10-16T08:07:45.745Z,8.55
2023-10-16T08:10:47.729Z,8.75
2023-10-16T08:13:53.947Z,11.90
2023-10-16T08:17:16.230Z,6.07
2023-10-16T08:20:19.095Z,7.15
2023-10-16T08:23:23.097Z,6.80
2023-10-16T08:26:31.961Z,7.20
2023-10-16T08:29:39.980Z,5.25
2023-10-16T08:32:54.744Z,6.63
2023-10-16T08:35:59.531Z,6.30
2023-10-16T08:39:10.036Z,6.75
2023-10-16T08:42:22.141Z,4.85
2023-10-16T08:45:26.931Z,4.43
2023-10-16T08:48:30.720Z,5.93
2023-10-16T08:51:33.259Z,4.30
2023-10-16T08:54:50.500Z,5.47
2023-10-16T08:57:52.660Z,5.15
2023-10-16T09:00:56.788Z,6.28
2023-10-16T09:04:03.495Z,6.63
2023-10-16T09:07:05.619Z,7.68
2023-10-16T09:10:11.400Z,8.23
2023-10-16T09:13:17.263Z,7.32
2023-10-16T09:16:33.091Z,5.32
2023-10-16T09:19:35.947Z,7.80
2023-10-16T09:22:40.699Z,5.15
2023-10-16T09:25:46.324Z,7.00
2023-10-16T09:28:55.029Z,6.57
2023-10-16T09:31:58.947Z,3.55
2023-10-16T09:35:06.878Z,4.03
2023-10-16T09:38:11.853Z,4.68
2023-10-16T09:41:36.888Z,5.75
2023-10-16T09:45:08.697Z,5.55
2023-10-16T09:48:20.777Z,4.75
2023-10-16T09:51:25.237Z,17.43
2023-10-16T09:54:31.028Z,6.13
2023-10-16T09:57:33.539Z,8.40
2023-10-16T10:00:39.592Z,6.03
2023-10-16T10:03:43.618Z,5.60
2023-10-16T10:06:48.448Z,9.73
2023-10-16T10:09:54.648Z,7.72
2023-10-16T10:13:16.903Z,3.75
2023-10-16T10:16:22.473Z,7.32
2023-10-16T10:19:37.137Z,4.45
2023-10-16T10:22:46.214Z,6.20
2023-10-16T10:25:48.475Z,6.95
2023-10-16T10:29:10.719Z,5.13
2023-10-16T10:32:15.143Z,4.43
2023-10-16T10:35:40.398Z,4.22
2023-10-16T10:38:43.198Z,4.93
2023-10-16T10:41:53.263Z,6.10
2023-10-16T10:45:01.853Z,5.35
2023-10-16T10:48:05.539Z,5.05
2023-10-16T10:51:14.676Z,3.95
2023-10-16T10:54:25.410Z,5.70
2023-10-16T10:57:28.000Z,5.10
2023-10-16T11:00:30.022Z,9.70
2023-10-16T11:03:34.763Z,4.22
2023-10-16T11:07:02.970Z,5.22
2023-10-16T11:10:07.223Z,4.90
2023-10-16T11:13:10.501Z,4.70
2023-10-16T11:16:12.549Z,7.63
2023-10-16T11:19:24.867Z,6.60
2023-10-16T11:22:28.430Z,7.80
2023-10-16T11:25:30.546Z,3.63
2023-10-16T11:28:33.402Z,4.32
2023-10-16T11:31:42.194Z,17.55
2023-10-16T11:34:47.744Z,8.05
2023-10-16T11:38:13.371Z,5.50
2023-10-16T11:41:20.850Z,9.30
2023-10-16T11:44:27.094Z,10.20
2023-10-16T11:47:41.063Z,5.75
2023-10-16T11:50:44.561Z,9.98
2023-10-16T11:53:47.794Z,8.27
2023-10-16T11:56:59.270Z,4.23
2023-10-16T12:00:17.502Z,4.47
2023-10-16T12:03:19.882Z,4.28
2023-10-16T12:06:22.017Z,4.38
2023-10-16T12:09:24.334Z,4.45
2023-10-16T12:12:26.608Z,4.60
2023-10-16T12:15:28.721Z,5.32
2023-10-16T12:18:32.662Z,4.45
2023-10-16T12:21:34.926Z,3.63
2023-10-16T12:24:37.109Z,5.15
2023-10-16T12:27:39.310Z,4.33
2023-10-16T12:30:41.421Z,5.80
2023-10-16T12:33:43.484Z,5.18
2023-10-16T12:36:45.671Z,3.70
2023-10-16T12:39:48.656Z,4.05
2023-10-16T12:42:54.718Z,3.80
2023-10-16T12:45:58.956Z,4.07
2023-10-16T12:49:01.324Z,6.45
2023-10-16T12:52:03.557Z,3.83
2023-10-16T12:55:10.446Z,4.65
2023-10-16T12:58:12.935Z,4.80
2023-10-16T13:01:17.183Z,3.40
2023-10-16T13:04:20.070Z,4.45
2023-10-16T13:07:35.661Z,5.78
2023-10-16T13:10:49.848Z,6.35
2023-10-16T13:13:52.592Z,4.47
2023-10-16T13:16:54.817Z,3.47
2023-10-16T13:19:56.902Z,5.60
2023-10-16T13:22:59.174Z,5.00
2023-10-16T13:26:01.753Z,4.43
2023-10-16T13:29:09.274Z,6.57
2023-10-16T13:32:11.491Z,14.48
2023-10-16T13:35:13.848Z,5.13
2023-10-16T13:38:15.972Z,6.32
2023-10-16T13:41:21.028Z,2.67
2023-10-16T13:44:25.093Z,4.33
2023-10-16T13:47:27.494Z,3.45
2023-10-16T13:50:30.020Z,5.05
2023-10-16T13:53:32.634Z,7.05
2023-10-16T13:56:35.569Z,5.70
2023-10-16T13:59:37.624Z,4.90
2023-10-16T14:02:42.079Z,4.38
2023-10-16T14:05:48.577Z,3.67
2023-10-16T14:08:50.947Z,3.67
2023-10-16T14:11:53.032Z,3.90
2023-10-16T14:14:55.069Z,3.17
2023-10-16T14:17:59.201Z,5.40
2023-10-16T14:21:07.633Z,6.57
2023-10-16T14:24:09.896Z,2.95
2023-10-16T14:27:16.181Z,5.35
2023-10-16T14:30:29.989Z,3.47
2023-10-16T14:33:40.781Z,2.80
2023-10-16T14:36:42.920Z,4.35
2023-10-16T14:39:47.312Z,2.65
2023-10-16T14:42:49.467Z,3.72
2023-10-16T14:45:55.542Z,4.40
2023-10-16T14:48:57.785Z,3.72
2023-10-16T14:51:59.913Z,5.35
2023-10-16T14:55:04.133Z,2.05
2023-10-16T14:58:19.384Z,2.45
2023-10-16T15:01:29.522Z,4.03
2023-10-16T15:04:32.301Z,2.40
2023-10-16T15:07:34.666Z,2.20
2023-10-16T15:10:48.012Z,3.05
2023-10-16T15:13:51.062Z,3.25
2023-10-16T15:16:53.172Z,4.17
2023-10-16T15:19:55.552Z,4.03
2023-10-16T15:22:58.095Z,4.13
2023-10-16T15:26:01.211Z,2.97
2023-10-16T15:29:05.113Z,3.70
2023-10-16T15:32:09.260Z,4.20
2023-10-16T15:35:11.535Z,3.50
2023-10-16T15:38:14.000Z,6.00
2023-10-16T15:41:16.157Z,3.85
2023-10-16T15:44:20.713Z,6.95
2023-10-16T15:47:24.503Z,5.80
2023-10-16T15:50:28.919Z,4.85
2023-10-16T15:53:31.155Z,4.28
2023-10-16T15:56:33.416Z,7.70
2023-10-16T15:59:35.635Z,8.20
2023-10-16T16:02:38.517Z,12.17
2023-10-16T16:05:40.643Z,3.63
2023-10-16T16:08:42.777Z,5.53
2023-10-16T16:11:45.620Z,8.85
2023-10-16T16:14:47.662Z,4.45
2023-10-16T16:17:49.719Z,9.60
2023-10-16T16:20:51.801Z,11.70
2023-10-16T16:23:54.927Z,20.13
2023-10-16T16:26:57.052Z,17.27
2023-10-16T16:30:00.004Z,22.33
2023-10-16T16:33:02.154Z,23.67
2023-10-16T16:36:05.227Z,27.42
2023-10-16T16:39:13.850Z,38.47
2023-10-16T16:42:16.223Z,38.35
2023-10-16T16:45:19.200Z,37.28
2023-10-16T16:48:21.341Z,37.53
2023-10-16T16:51:24.978Z,47.83
2023-10-16T16:54:29.034Z,48.88
2023-10-16T16:57:31.033Z,51.33
2023-10-16T17:00:33.474Z,48.78
2023-10-16T17:03:35.747Z,57.83
2023-10-16T17:06:38.667Z,88.28
2023-10-16T17:09:40.733Z,176.30
2023-10-16T17:12:43.343Z,421.98
2023-10-16T17:15:46.226Z,213.82
2023-10-16T17:18:48.380Z,373.53
2023-10-16T17:21:50.573Z,296.23
2023-10-16T17:24:52.751Z,113.10
2023-10-16T17:27:54.876Z,125.88
2023-10-16T17:30:57.006Z,211.10
2023-10-16T17:33:59.877Z,318.43
2023-10-16T17:37:05.084Z,364.67
2023-10-16T17:40:08.293Z,190.02
2023-10-16T17:43:10.881Z,147.05
2023-10-16T17:46:13.926Z,73.43
2023-10-16T17:49:16.058Z,46.80
2023-10-16T17:52:18.112Z,34.30
2023-10-16T17:55:20.345Z,30.02
2023-10-16T17:58:26.119Z,21.10
2023-10-16T18:01:30.089Z,15.98
2023-10-16T18:04:32.358Z,18.50
2023-10-16T18:07:34.477Z,14.48
2023-10-16T18:10:42.922Z,14.23
2023-10-16T18:13:45.056Z,8.73
2023-10-16T18:16:47.134Z,9.70
2023-10-16T18:19:49.443Z,11.63
2023-10-16T18:22:52.792Z,7.13
2023-10-16T18:25:54.932Z,10.45
2023-10-16T18:28:59.573Z,12.52
2023-10-16T18:32:01.680Z,29.58
2023-10-16T18:35:03.849Z,25.40
2023-10-16T18:38:06.990Z,29.73
2023-10-16T18:41:09.449Z,25.52
2023-10-16T18:44:12.253Z,17.13
2023-10-16T18:47:14.518Z,21.05
2023-10-16T18:50:17.231Z,22.67
2023-10-16T18:53:19.962Z,22.92
2023-10-16T18:56:23.327Z,57.50
2023-10-16T18:59:25.428Z,77.78
2023-10-16T19:02:28.758Z,62.65
2023-10-16T19:05:31.408Z,49.40
2023-10-16T19:08:34.186Z,93.57
2023-10-16T19:11:36.265Z,117.70
2023-10-16T19:14:38.326Z,96.60
2023-10-16T19:17:40.384Z,104.28
2023-10-16T19:20:42.544Z,101.97
2023-10-16T19:23:45.235Z,92.82
2023-10-16T19:26:47.479Z,53.67
2023-10-16T19:29:49.624Z,54.83
2023-10-16T19:32:51.795Z,54.20
2023-10-16T19:35:55.405Z,50.70
2023-10-16T19:38:58.154Z,47.25
2023-10-16T19:42:01.146Z,41.65
2023-10-16T19:45:05.706Z,40.60
2023-10-16T19:48:08.368Z,44.15
2023-10-16T19:51:22.604Z,46.57
2023-10-16T19:54:24.992Z,43.75
2023-10-16T19:57:27.634Z,44.47
2023-10-16T20:00:30.198Z,39.55
2023-10-16T20:03:33.214Z,45.70
2023-10-16T20:06:35.634Z,41.67
2023-10-16T20:09:39.141Z,41.78
2023-10-16T20:12:51.035Z,33.60
2023-10-16T20:15:54.511Z,37.15
2023-10-16T20:18:56.553Z,31.00
2023-10-16T20:21:58.683Z,45.10
2023-10-16T20:25:00.719Z,38.33
2023-10-16T20:28:09.873Z,20.95
2023-10-16T20:31:12.558Z,14.20
2023-10-16T20:34:16.407Z,23.70
2023-10-16T20:37:20.406Z,28.30
2023-10-16T20:40:23.688Z,16.63
2023-10-16T20:43:28.399Z,20.83
2023-10-16T20:46:32.295Z,16.85
2023-10-16T20:49:35.784Z,24.75
2023-10-16T20:52:37.915Z,27.30
2023-10-16T20:55:42.763Z,34.13
2023-10-16T20:58:47.413Z,39.88
2023-10-16T21:01:50.208Z,41.08
2023-10-16T21:04:52.564Z,28.60
2023-10-16T21:07:54.968Z,32.43
2023-10-16T21:10:57.017Z,35.50
2023-10-16T21:13:59.042Z,35.50
2023-10-16T21:17:01.259Z,38.00
2023-10-16T21:20:03.505Z,40.30
2023-10-16T21:23:06.286Z,34.67
2023-10-16T21:26:15.362Z,30.92
2023-10-16T21:29:17.581Z,34.45
2023-10-16T21:32:22.249Z,31.40
2023-10-16T21:35:25.985Z,29.92
2023-10-16T21:38:28.317Z,28.60
2023-10-16T21:41:31.783Z,35.10
2023-10-16T21:44:33.819Z,27.08
2023-10-16T21:47:37.039Z,21.98
2023-10-16T21:50:39.257Z,22.25
2023-10-16T21:53:42.193Z,21.57
2023-10-16T21:56:45.503Z,25.23
2023-10-16T21:59:48.394Z,20.33
2023-10-16T22:02:50.963Z,23.05
2023-10-16T22:05:54.457Z,21.10
2023-10-16T22:08:56.653Z,18.67
2023-10-16T22:12:00.842Z,22.92
2023-10-16T22:15:11.004Z,22.52
2023-10-16T22:18:13.445Z,21.83
2023-10-16T22:21:17.611Z,20.55
2023-10-16T22:24:20.215Z,16.60
2023-10-16T22:27:22.278Z,14.70
2023-10-16T22:30:25.803Z,12.32
2023-10-16T22:33:28.115Z,8.55
2023-10-16T22:36:30.544Z,7.97
2023-10-16T22:39:33.638Z,6.60
2023-10-16T22:42:35.738Z,7.88
2023-10-16T22:45:41.492Z,9.60
2023-10-16T22:48:43.722Z,12.95
2023-10-16T22:51:46.408Z,15.43
2023-10-16T22:54:48.475Z,15.37
2023-10-16T22:57:51.674Z,16.67
2023-10-16T23:00:57.174Z,19.55
2023-10-16T23:03:59.337Z,19.02
2023-10-16T23:07:06.865Z,19.27
2023-10-16T23:10:13.503Z,19.43
2023-10-16T23:13:15.595Z,23.45
2023-10-16T23:16:17.651Z,18.30
2023-10-16T23:19:21.870Z,18.50
2023-10-16T23:22:23.882Z,19.77
2023-10-16T23:25:25.914Z,18.93
2023-10-16T23:28:28.454Z,18.17
2023-10-16T23:31:33.683Z,16.10
2023-10-16T23:34:45.212Z,12.25
2023-10-16T23:37:47.655Z,15.57
2023-10-16T23:40:58.702Z,15.53
2023-10-16T23:44:15.913Z,14.65
2023-10-16T23:47:18.733Z,18.02
2023-10-16T23:50:28.201Z,14.40
2023-10-16T23:53:34.774Z,18.45
2023-10-16T23:56:39.577Z,17.73
2023-10-16T23:59:49.358Z,15.75
